Time;durP1;ratioP1;P1;durP2;ratioP2;P2;SDS_P1;SDS_P2;PMS_P1;PMS_P2;Temp;Humidity;BMP_temperature;BMP_pressure;BME280_temperature;BME280_humidity;BME280_pressure;Samples;Min_cycle;Max_cycle;Signal;HPM_P1;HPM_P2
2024/04/04 00:00:15;;;;;;;;;;;11.90;89.40;;;;;;5091771;28;19930;-60
2024/04/04 00:02:51;;;;;;;;;;;11.80;89.50;;;;;;5089580;28;19935;-63
2024/04/04 00:05:25;;;;;;;;;;;11.80;89.50;;;;;;5094619;28;19924;-62
2024/04/04 00:07:58;;;;;;;;;;;11.80;89.60;;;;;;5092309;28;19924;-63
2024/04/04 00:10:30;;;;;;;;;;;11.70;89.60;;;;;;5090961;28;19955;-59
2024/04/04 00:13:03;;;;;;;;;;;11.70;89.50;;;;;;5092563;28;20007;-61
2024/04/04 00:15:37;;;;;;;;;;;11.70;89.50;;;;;;5093169;28;20002;-60
2024/04/04 00:18:12;;;;;;;;;;;11.70;89.40;;;;;;5093260;28;19961;-61
2024/04/04 00:20:51;;;;;;;;;;;11.60;89.40;;;;;;5093581;28;19923;-61
2024/04/04 00:23:24;;;;;;;;;;;11.60;89.40;;;;;;5089571;28;20413;-60
2024/04/04 00:25:56;;;;;;;;;;;11.50;89.30;;;;;;5093527;28;20348;-61
2024/04/04 00:28:29;;;;;;;;;;;11.50;89.20;;;;;;5094760;28;19931;-62
2024/04/04 00:31:09;;;;;;;;;;;11.40;89.20;;;;;;5092666;28;19928;-61
2024/04/04 00:33:44;;;;;;;;;;;11.40;89.20;;;;;;5092635;28;22157;-61
2024/04/04 00:36:16;;;;;;;;;;;11.30;89.10;;;;;;5095630;28;19939;-60
2024/04/04 00:38:49;;;;;;;;;;;11.30;89.00;;;;;;5096066;28;19924;-60
2024/04/04 00:41:21;;;;;;;;;;;11.20;89.10;;;;;;5095275;28;19924;-62
2024/04/04 00:43:54;;;;;;;;;;;11.30;89.00;;;;;;5096598;28;19931;-61
2024/04/04 00:46:26;;;;;;;;;;;11.20;89.00;;;;;;5097257;28;19934;-60
2024/04/04 00:49:01;;;;;;;;;;;11.20;88.90;;;;;;5094042;28;19959;-61
2024/04/04 00:51:33;;;;;;;;;;;11.20;88.90;;;;;;5095726;28;19967;-62
2024/04/04 00:54:06;;;;;;;;;;;11.10;88.80;;;;;;5097060;28;20856;-64
2024/04/04 00:56:38;;;;;;;;;;;11.10;88.80;;;;;;5095276;28;20014;-63
2024/04/04 00:59:13;;;;;;;;;;;11.10;88.70;;;;;;5097016;28;20014;-65
2024/04/04 01:01:44;;;;;;;;;;;11.00;88.70;;;;;;5092879;28;19973;-64
2024/04/04 01:04:19;;;;;;;;;;;11.00;88.80;;;;;;5091892;28;20462;-63
2024/04/04 01:06:51;;;;;;;;;;;10.90;88.80;;;;;;5088176;28;20027;-64
2024/04/04 01:09:24;;;;;;;;;;;10.90;88.80;;;;;;5070846;28;20394;-65
2024/04/04 01:11:56;;;;;;;;;;;10.90;88.70;;;;;;5088386;28;19967;-63
2024/04/04 01:14:29;;;;;;;;;;;10.80;88.70;;;;;;5088268;28;19984;-65
2024/04/04 01:17:01;;;;;;;;;;;10.80;88.70;;;;;;5084283;28;19928;-63
2024/04/04 01:19:42;;;;;;;;;;;10.80;88.80;;;;;;5090366;28;20381;-63
2024/04/04 01:22:14;;;;;;;;;;;10.80;88.90;;;;;;5087696;28;19931;-62
2024/04/04 01:24:49;;;;;;;;;;;10.80;88.80;;;;;;5093168;28;19935;-63
2024/04/04 01:27:14;;;;;;;;;;;10.70;88.80;;;;;;5096190;28;19924;-63
2024/04/04 01:29:47;;;;;;;;;;;10.70;88.80;;;;;;5098898;28;19960;-64
2024/04/04 01:32:19;;;;;;;;;;;10.70;88.70;;;;;;5091583;28;19924;-63
2024/04/04 01:34:52;;;;;;;;;;;10.70;88.70;;;;;;5088552;28;19935;-64
2024/04/04 01:37:24;;;;;;;;;;;10.60;88.60;;;;;;5097971;28;19931;-62
2024/04/04 01:39:59;;;;;;;;;;;10.60;88.60;;;;;;5092723;28;19932;-62
2024/04/04 01:42:31;;;;;;;;;;;10.50;88.60;;;;;;5091718;28;19924;-62
2024/04/04 01:45:05;;;;;;;;;;;10.50;88.40;;;;;;5089897;28;20020;-61
2024/04/04 01:47:36;;;;;;;;;;;10.50;88.30;;;;;;5087198;28;19928;-62
2024/04/04 01:50:09;;;;;;;;;;;10.40;88.20;;;;;;5085923;28;19939;-63
2024/04/04 01:52:41;;;;;;;;;;;10.40;88.10;;;;;;5093144;28;20984;-64
2024/04/04 01:55:16;;;;;;;;;;;10.40;88.10;;;;;;5097061;28;19923;-62
2024/04/04 01:57:48;;;;;;;;;;;10.40;88.10;;;;;;5093020;28;20401;-63
2024/04/04 02:00:21;;;;;;;;;;;10.30;87.90;;;;;;5093318;28;19928;-63
2024/04/04 02:02:54;;;;;;;;;;;10.30;88.00;;;;;;5098375;28;19934;-65
2024/04/04 02:05:20;;;;;;;;;;;10.30;88.00;;;;;;5098913;28;19924;-73
2024/04/04 02:07:59;;;;;;;;;;;10.30;88.00;;;;;;5098208;28;19955;-70
2024/04/04 02:10:34;;;;;;;;;;;10.20;88.10;;;;;;5098395;28;19931;-72
2024/04/04 02:13:07;;;;;;;;;;;10.30;88.20;;;;;;5096412;28;19955;-72
2024/04/04 02:15:41;;;;;;;;;;;10.20;88.10;;;;;;5096909;28;20379;-72
2024/04/04 02:18:15;;;;;;;;;;;10.20;88.20;;;;;;5098032;28;19925;-73
2024/04/04 02:20:48;;;;;;;;;;;10.20;88.20;;;;;;5100553;28;20370;-73
2024/04/04 02:23:20;;;;;;;;;;;10.20;88.10;;;;;;5096407;28;20537;-73
2024/04/04 02:25:55;;;;;;;;;;;10.20;88.10;;;;;;5099190;28;19947;-73
2024/04/04 02:28:28;;;;;;;;;;;10.20;88.10;;;;;;5096910;28;20367;-72
2024/04/04 02:31:00;;;;;;;;;;;10.10;88.20;;;;;;5096709;28;19934;-73
2024/04/04 02:33:29;;;;;;;;;;;10.10;88.20;;;;;;5088145;28;19932;-73
2024/04/04 02:36:08;;;;;;;;;;;10.10;88.20;;;;;;5092265;28;19924;-73
2024/04/04 02:38:41;;;;;;;;;;;10.10;88.20;;;;;;5097963;28;19991;-71
2024/04/04 02:41:16;;;;;;;;;;;10.10;88.40;;;;;;5091654;28;19982;-73
2024/04/04 02:43:48;;;;;;;;;;;10.20;88.60;;;;;;5094684;28;20407;-72
2024/04/04 02:46:22;;;;;;;;;;;10.20;88.60;;;;;;5094998;28;19935;-72
2024/04/04 02:49:00;;;;;;;;;;;10.20;88.70;;;;;;5093178;28;19928;-72
2024/04/04 02:51:33;;;;;;;;;;;10.20;88.70;;;;;;5094351;28;19934;-72
2024/04/04 02:54:05;;;;;;;;;;;10.20;88.70;;;;;;5092940;28;19935;-72
2024/04/04 02:56:40;;;;;;;;;;;10.30;88.80;;;;;;5098070;28;20378;-72
2024/04/04 02:59:12;;;;;;;;;;;10.30;88.90;;;;;;5093640;28;19924;-72
2024/04/04 03:01:45;;;;;;;;;;;10.30;89.00;;;;;;5087426;28;19974;-72
2024/04/04 03:04:17;;;;;;;;;;;10.30;89.00;;;;;;5091791;28;20513;-72
2024/04/04 03:06:52;;;;;;;;;;;10.30;89.10;;;;;;5077388;28;20018;-73
2024/04/04 03:09:24;;;;;;;;;;;10.20;89.10;;;;;;5080937;28;20038;-72
2024/04/04 03:11:58;;;;;;;;;;;10.20;89.10;;;;;;5080182;28;20046;-75
2024/04/04 03:14:24;;;;;;;;;;;10.20;89.10;;;;;;5084231;28;19935;-67
2024/04/04 03:16:56;;;;;;;;;;;10.20;89.10;;;;;;5087805;28;20014;-68
2024/04/04 03:19:28;;;;;;;;;;;10.20;89.20;;;;;;5098054;28;19931;-67
2024/04/04 03:22:01;;;;;;;;;;;10.20;89.20;;;;;;5097977;28;19934;-69
2024/04/04 03:24:36;;;;;;;;;;;10.20;89.20;;;;;;5091442;28;19934;-66
2024/04/04 03:27:10;;;;;;;;;;;10.20;89.20;;;;;;5063875;28;19989;-66
2024/04/04 03:29:36;;;;;;;;;;;10.20;89.20;;;;;;5096377;28;20015;-66
2024/04/04 03:32:08;;;;;;;;;;;10.20;89.30;;;;;;5090922;28;19978;-66
2024/04/04 03:34:47;;;;;;;;;;;10.20;89.40;;;;;;5094922;28;19925;-66
2024/04/04 03:37:20;;;;;;;;;;;10.20;89.30;;;;;;5097666;28;19931;-66
2024/04/04 03:39:54;;;;;;;;;;;10.20;89.40;;;;;;5098462;28;19969;-68
2024/04/04 03:42:29;;;;;;;;;;;10.20;89.40;;;;;;5094150;28;19928;-67
2024/04/04 03:45:04;;;;;;;;;;;10.20;89.50;;;;;;5092714;28;19930;-67
2024/04/04 03:47:37;;;;;;;;;;;10.20;89.50;;;;;;5095043;28;19928;-65
2024/04/04 03:50:09;;;;;;;;;;;10.20;89.50;;;;;;5095520;28;19931;-67
2024/04/04 03:52:41;;;;;;;;;;;10.20;89.50;;;;;;5094918;28;20022;-65
2024/04/04 03:55:15;;;;;;;;;;;10.20;89.60;;;;;;5099487;28;19935;-66
2024/04/04 03:57:49;;;;;;;;;;;10.20;89.60;;;;;;5093563;28;19930;-68
2024/04/04 04:00:22;;;;;;;;;;;10.30;89.60;;;;;;5093427;28;19939;-68
2024/04/04 04:02:55;;;;;;;;;;;10.30;89.60;;;;;;5086049;28;20387;-68
2024/04/04 04:05:28;;;;;;;;;;;10.30;89.60;;;;;;5092510;28;19993;-67
2024/04/04 04:07:59;;;;;;;;;;;10.30;89.70;;;;;;5093300;28;19997;-67
2024/04/04 04:10:32;;;;;;;;;;;10.30;89.70;;;;;;5088962;28;19927;-68
2024/04/04 04:13:08;;;;;;;;;;;10.30;89.80;;;;;;5097480;28;19938;-69
2024/04/04 04:15:41;;;;;;;;;;;10.30;89.70;;;;;;5097300;28;19935;-67
2024/04/04 04:18:06;;;;;;;;;;;10.30;89.80;;;;;;5095405;28;19928;-69
2024/04/04 04:23:31;;;;;;;;;;;10.30;89.80;;;;;;5092254;28;19943;-68
2024/04/04 04:25:56;;;;;;;;;;;10.30;89.80;;;;;;5097635;28;19932;-59
2024/04/04 04:28:31;;;;;;;;;;;10.30;89.90;;;;;;5091625;28;19927;-59
2024/04/04 04:31:07;;;;;;;;;;;10.30;89.90;;;;;;5096199;28;20298;-58
2024/04/04 04:33:47;;;;;;;;;;;10.30;90.00;;;;;;5097178;28;19927;-59
2024/04/04 04:36:22;;;;;;;;;;;10.30;90.00;;;;;;5097121;28;19931;-59
2024/04/04 04:38:55;;;;;;;;;;;10.30;90.00;;;;;;5091566;28;19931;-59
2024/04/04 04:41:27;;;;;;;;;;;10.30;90.10;;;;;;5098720;28;19973;-59
2024/04/04 04:44:08;;;;;;;;;;;10.30;90.10;;;;;;5097523;28;19977;-58
2024/04/04 04:46:42;;;;;;;;;;;10.30;90.30;;;;;;5091462;28;20419;-60
2024/04/04 04:49:15;;;;;;;;;;;10.30;90.30;;;;;;5097708;28;19930;-57
2024/04/04 04:51:47;;;;;;;;;;;10.30;90.30;;;;;;5097156;28;20030;-59
2024/04/04 04:54:21;;;;;;;;;;;10.30;90.30;;;;;;5099780;28;19974;-58
2024/04/04 04:56:53;;;;;;;;;;;10.30;90.40;;;;;;5091926;28;19928;-57
2024/04/04 04:59:27;;;;;;;;;;;10.30;90.20;;;;;;5096321;28;19975;-60
2024/04/04 05:02:00;;;;;;;;;;;10.30;90.30;;;;;;5096227;28;20006;-58
2024/04/04 05:04:34;;;;;;;;;;;10.40;90.30;;;;;;5098296;28;20024;-58
2024/04/04 05:07:06;;;;;;;;;;;10.30;90.20;;;;;;5098885;28;19924;-59
2024/04/04 05:09:39;;;;;;;;;;;10.40;90.10;;;;;;5094179;28;19964;-59
2024/04/04 05:12:11;;;;;;;;;;;10.40;90.20;;;;;;5095508;28;19924;-60
2024/04/04 05:14:45;;;;;;;;;;;10.40;90.20;;;;;;5096944;28;19935;-59
2024/04/04 05:17:18;;;;;;;;;;;10.40;90.20;;;;;;5093085;28;19978;-59
2024/04/04 05:19:51;;;;;;;;;;;10.30;90.20;;;;;;5099565;28;20388;-58
2024/04/04 05:22:23;;;;;;;;;;;10.30;90.20;;;;;;5095916;28;19932;-59
2024/04/04 05:24:56;;;;;;;;;;;10.40;90.20;;;;;;5099287;28;19927;-59
2024/04/04 05:27:29;;;;;;;;;;;10.30;90.20;;;;;;5095053;28;19927;-59
2024/04/04 05:30:07;;;;;;;;;;;10.40;90.30;;;;;;5095593;28;19932;-59
2024/04/04 05:32:40;;;;;;;;;;;10.40;90.30;;;;;;5093968;28;19927;-58
2024/04/04 05:35:14;;;;;;;;;;;10.40;90.30;;;;;;5099137;28;19935;-67
2024/04/04 05:37:47;;;;;;;;;;;10.40;90.30;;;;;;5093212;28;19934;-69
2024/04/04 05:40:20;;;;;;;;;;;10.40;90.20;;;;;;5098215;28;19928;-67
2024/04/04 05:42:45;;;;;;;;;;;10.40;90.30;;;;;;5095691;28;19924;-68
2024/04/04 05:45:20;;;;;;;;;;;10.40;90.40;;;;;;5095192;28;19931;-68
2024/04/04 05:47:53;;;;;;;;;;;10.40;90.40;;;;;;5096794;28;19928;-66
2024/04/04 05:50:27;;;;;;;;;;;10.40;90.40;;;;;;5095929;28;19934;-68
2024/04/04 05:52:59;;;;;;;;;;;10.40;90.50;;;;;;5097774;28;19935;-67
2024/04/04 05:55:32;;;;;;;;;;;10.40;90.40;;;;;;5097176;28;19946;-67
2024/04/04 05:58:06;;;;;;;;;;;10.40;90.40;;;;;;5098950;28;20013;-68
2024/04/04 06:00:40;;;;;;;;;;;10.40;90.40;;;;;;5095422;28;20329;-67
2024/04/04 06:03:13;;;;;;;;;;;10.50;90.60;;;;;;5095537;28;20367;-67
2024/04/04 06:05:46;;;;;;;;;;;10.50;90.50;;;;;;5095822;28;20411;-68
2024/04/04 06:08:24;;;;;;;;;;;10.50;90.30;;;;;;5098279;28;20006;-67
2024/04/04 06:11:03;;;;;;;;;;;10.50;90.50;;;;;;5093555;28;20401;-65
2024/04/04 06:13:37;;;;;;;;;;;10.50;90.50;;;;;;5075681;28;20409;-67
2024/04/04 06:16:11;;;;;;;;;;;10.60;90.40;;;;;;5095920;28;19928;-66
2024/04/04 06:18:45;;;;;;;;;;;10.60;90.00;;;;;;5095890;28;19972;-67
2024/04/04 06:21:17;;;;;;;;;;;10.60;90.20;;;;;;5097215;28;20459;-67
2024/04/04 06:23:50;;;;;;;;;;;10.70;90.70;;;;;;5096629;28;20293;-66
2024/04/04 06:26:25;;;;;;;;;;;10.70;91.10;;;;;;5097311;28;19923;-67
2024/04/04 06:28:59;;;;;;;;;;;10.80;90.90;;;;;;5095752;28;19968;-66
2024/04/04 06:31:26;;;;;;;;;;;10.90;91.10;;;;;;5096523;28;19952;-65
2024/04/04 06:34:00;;;;;;;;;;;10.90;91.10;;;;;;5094180;28;19966;-67
2024/04/04 06:36:32;;;;;;;;;;;11.00;91.30;;;;;;5096804;28;19951;-66
2024/04/04 06:39:05;;;;;;;;;;;11.10;91.20;;;;;;5095052;28;19932;-66
2024/04/04 06:41:37;;;;;;;;;;;11.20;91.40;;;;;;5097436;28;19999;-67
2024/04/04 06:44:10;;;;;;;;;;;11.20;91.60;;;;;;5096844;28;20003;-60
2024/04/04 06:46:44;;;;;;;;;;;11.20;91.50;;;;;;5094355;28;19928;-62
2024/04/04 06:49:18;;;;;;;;;;;11.30;91.60;;;;;;5096086;28;20316;-59
2024/04/04 06:51:50;;;;;;;;;;;11.30;91.70;;;;;;5091402;28;19954;-60
2024/04/04 06:54:23;;;;;;;;;;;11.30;91.50;;;;;;5088253;28;19928;-63
2024/04/04 06:56:55;;;;;;;;;;;11.30;91.50;;;;;;5092820;28;19929;-60
2024/04/04 06:59:28;;;;;;;;;;;11.40;91.50;;;;;;5096957;28;20278;-60
2024/04/04 07:02:01;;;;;;;;;;;11.40;91.40;;;;;;5096052;28;19927;-60
2024/04/04 07:04:35;;;;;;;;;;;11.50;91.40;;;;;;5086708;28;20294;-60
2024/04/04 07:07:08;;;;;;;;;;;11.50;91.10;;;;;;5097325;28;20454;-59
2024/04/04 07:09:41;;;;;;;;;;;11.50;91.40;;;;;;5094774;28;19932;-60
2024/04/04 07:12:13;;;;;;;;;;;11.60;91.20;;;;;;5088824;28;19932;-60
2024/04/04 07:14:46;;;;;;;;;;;11.60;91.20;;;;;;5093813;28;19934;-60
2024/04/04 07:17:19;;;;;;;;;;;11.70;91.20;;;;;;5093358;28;20438;-61
2024/04/04 07:19:53;;;;;;;;;;;11.70;91.20;;;;;;5091805;28;20378;-60
2024/04/04 07:22:26;;;;;;;;;;;11.70;91.00;;;;;;5092528;28;19928;-61
2024/04/04 07:24:59;;;;;;;;;;;11.70;91.00;;;;;;5084706;28;20339;-60
2024/04/04 07:27:31;;;;;;;;;;;11.70;90.90;;;;;;5088257;28;19932;-60
2024/04/04 07:29:57;;;;;;;;;;;11.70;90.90;;;;;;5093805;28;20256;-60
2024/04/04 07:32:31;;;;;;;;;;;11.70;90.80;;;;;;5093405;28;19923;-60
2024/04/04 07:35:05;;;;;;;;;;;11.70;90.80;;;;;;5092463;28;20290;-59
2024/04/04 07:37:38;;;;;;;;;;;11.80;90.70;;;;;;5087706;28;20076;-60
2024/04/04 07:40:11;;;;;;;;;;;11.80;90.60;;;;;;5085115;28;19982;-60
2024/04/04 07:42:49;;;;;;;;;;;11.80;90.60;;;;;;5088833;28;19924;-61
2024/04/04 07:45:23;;;;;;;;;;;11.80;90.60;;;;;;5096390;28;19924;-62
2024/04/04 07:47:56;;;;;;;;;;;11.90;90.40;;;;;;5099443;28;19924;-60
2024/04/04 07:50:37;;;;;;;;;;;11.90;90.40;;;;;;5098362;28;19932;-60
2024/04/04 07:53:09;;;;;;;;;;;11.90;90.40;;;;;;5092706;28;20011;-59
2024/04/04 07:55:42;;;;;;;;;;;11.90;90.30;;;;;;5098626;28;19966;-62
2024/04/04 07:58:14;;;;;;;;;;;11.90;90.10;;;;;;5099413;28;19928;-61
2024/04/04 08:00:47;;;;;;;;;;;11.90;90.20;;;;;;5098049;28;19931;-62
2024/04/04 08:03:27;;;;;;;;;;;11.90;90.20;;;;;;5097113;28;20022;-62
2024/04/04 08:06:01;;;;;;;;;;;12.00;90.10;;;;;;5095652;28;20285;-74
2024/04/04 08:08:41;;;;;;;;;;;12.10;90.00;;;;;;5093047;28;20026;-74
2024/04/04 08:11:15;;;;;;;;;;;12.10;89.90;;;;;;5092731;28;19932;-74
2024/04/04 08:13:49;;;;;;;;;;;12.20;89.70;;;;;;5099817;28;19971;-72
2024/04/04 08:16:21;;;;;;;;;;;12.20;89.70;;;;;;5092541;28;19928;-72
2024/04/04 08:18:55;;;;;;;;;;;12.30;89.60;;;;;;5097259;28;20283;-74
2024/04/04 08:21:28;;;;;;;;;;;12.30;89.50;;;;;;5092730;28;19931;-73
2024/04/04 08:23:54;;;;;;;;;;;12.40;89.50;;;;;;5096586;28;19928;-73
2024/04/04 08:26:55;;;;;;;;;;;12.40;89.40;;;;;;5095105;28;19928;-74
2024/04/04 08:29:28;;;;;;;;;;;12.50;89.50;;;;;;5041359;28;19977;-72
2024/04/04 08:32:00;;;;;;;;;;;12.60;89.60;;;;;;5095524;28;20011;-73
2024/04/04 08:34:34;;;;;;;;;;;12.70;89.50;;;;;;5096148;28;19924;-73
2024/04/04 08:37:07;;;;;;;;;;;12.70;89.40;;;;;;5089400;28;19924;-74
2024/04/04 08:39:46;;;;;;;;;;;12.80;89.30;;;;;;5097733;28;19939;-73
2024/04/04 08:42:19;;;;;;;;;;;12.70;89.10;;;;;;5096676;28;20030;-73
2024/04/04 08:44:53;;;;;;;;;;;12.70;89.10;;;;;;5098468;28;20014;-74
2024/04/04 08:47:26;;;;;;;;;;;12.70;89.10;;;;;;5095331;28;19924;-72
2024/04/04 08:50:00;;;;;;;;;;;12.70;89.00;;;;;;5098277;28;19931;-73
2024/04/04 08:52:33;;;;;;;;;;;12.70;88.90;;;;;;5097426;28;19923;-73
2024/04/04 08:55:05;;;;;;;;;;;12.70;89.00;;;;;;5095755;28;19930;-73
2024/04/04 08:57:39;;;;;;;;;;;12.70;88.90;;;;;;5094274;28;20019;-72
2024/04/04 09:00:11;;;;;;;;;;;12.80;88.80;;;;;;5098030;28;20379;-74
2024/04/04 09:02:45;;;;;;;;;;;12.80;88.80;;;;;;5091710;28;19932;-72
2024/04/04 09:05:18;;;;;;;;;;;12.90;88.70;;;;;;5095874;28;19924;-74
2024/04/04 09:07:52;;;;;;;;;;;12.90;88.60;;;;;;5099290;28;20299;-73
2024/04/04 09:10:32;;;;;;;;;;;12.90;88.60;;;;;;5093534;28;20293;-73
2024/04/04 09:13:06;;;;;;;;;;;12.90;88.50;;;;;;5094593;28;19928;-73
2024/04/04 09:15:39;;;;;;;;;;;12.90;88.50;;;;;;5095909;28;19931;-60
2024/04/04 09:18:18;;;;;;;;;;;12.90;88.50;;;;;;5098989;28;20385;-60
2024/04/04 09:20:52;;;;;;;;;;;13.00;88.50;;;;;;5095845;28;19931;-60
2024/04/04 09:23:26;;;;;;;;;;;13.00;88.50;;;;;;5096411;28;19974;-61
2024/04/04 09:25:58;;;;;;;;;;;13.00;88.60;;;;;;5093794;28;19985;-59
2024/04/04 09:28:32;;;;;;;;;;;13.00;88.60;;;;;;5096568;28;19925;-61
2024/04/04 09:31:07;;;;;;;;;;;13.00;88.50;;;;;;5095756;28;19939;-60
2024/04/04 09:33:41;;;;;;;;;;;13.00;88.40;;;;;;5098121;28;19928;-59
2024/04/04 09:36:14;;;;;;;;;;;13.00;88.40;;;;;;5099011;28;19979;-62
2024/04/04 09:38:48;;;;;;;;;;;13.00;88.30;;;;;;5096984;28;20342;-60
2024/04/04 09:41:20;;;;;;;;;;;13.10;88.00;;;;;;5098821;28;20390;-60
2024/04/04 09:43:56;;;;;;;;;;;13.10;88.00;;;;;;5094805;28;20019;-59
2024/04/04 09:46:29;;;;;;;;;;;13.20;87.90;;;;;;5091428;28;19928;-60
2024/04/04 09:49:11;;;;;;;;;;;13.20;87.80;;;;;;5094981;28;20339;-61
2024/04/04 09:51:47;;;;;;;;;;;13.20;87.80;;;;;;5095911;28;19931;-61
2024/04/04 09:54:21;;;;;;;;;;;13.20;87.90;;;;;;5096291;28;19947;-60
2024/04/04 09:57:01;;;;;;;;;;;13.30;88.00;;;;;;5089438;28;19946;-61
2024/04/04 09:59:35;;;;;;;;;;;13.30;88.00;;;;;;5095167;28;19932;-62
2024/04/04 10:02:07;;;;;;;;;;;13.30;88.00;;;;;;5092974;28;19992;-62
2024/04/04 10:04:40;;;;;;;;;;;13.40;87.90;;;;;;5097468;28;20019;-60
2024/04/04 10:07:13;;;;;;;;;;;13.40;87.60;;;;;;5089344;28;19932;-60
2024/04/04 10:09:47;;;;;;;;;;;13.50;87.40;;;;;;5094060;28;19935;-59
2024/04/04 10:12:19;;;;;;;;;;;13.60;87.20;;;;;;5092981;28;19936;-60
2024/04/04 10:14:55;;;;;;;;;;;13.60;87.20;;;;;;5093805;28;19928;-61
2024/04/04 10:17:27;;;;;;;;;;;13.50;87.20;;;;;;5095635;28;19991;-61
2024/04/04 10:19:54;;;;;;;;;;;13.60;87.30;;;;;;5094173;28;19924;-61
2024/04/04 10:22:28;;;;;;;;;;;13.60;87.50;;;;;;5096742;28;20405;-61
2024/04/04 10:25:02;;;;;;;;;;;13.50;87.60;;;;;;5094779;28;19928;-61
2024/04/04 10:27:41;;;;;;;;;;;13.50;87.70;;;;;;5093418;28;19958;-60
2024/04/04 10:30:14;;;;;;;;;;;13.40;88.00;;;;;;5091388;28;20015;-60
2024/04/04 10:32:46;;;;;;;;;;;13.30;88.10;;;;;;5094907;28;19928;-60
2024/04/04 10:35:20;;;;;;;;;;;13.30;88.40;;;;;;5088800;28;20398;-60
2024/04/04 10:37:54;;;;;;;;;;;13.30;88.30;;;;;;5088007;28;20325;-60
2024/04/04 10:40:27;;;;;;;;;;;13.30;88.30;;;;;;5089736;28;19980;-60
2024/04/04 10:42:59;;;;;;;;;;;13.30;88.20;;;;;;5095608;28;20550;-61
2024/04/04 10:45:32;;;;;;;;;;;13.30;88.20;;;;;;5089287;28;20015;-59
2024/04/04 10:48:04;;;;;;;;;;;13.40;88.20;;;;;;5094735;28;19928;-61
2024/04/04 10:50:44;;;;;;;;;;;13.50;88.20;;;;;;5083044;28;20396;-60
2024/04/04 10:53:18;;;;;;;;;;;13.50;88.10;;;;;;5091458;28;19966;-60
2024/04/04 10:55:54;;;;;;;;;;;13.60;88.10;;;;;;5094333;28;20018;-59
2024/04/04 10:58:27;;;;;;;;;;;13.60;88.00;;;;;;5092739;28;20309;-61
2024/04/04 11:01:01;;;;;;;;;;;13.70;88.00;;;;;;5089983;28;20384;-60
2024/04/04 11:03:33;;;;;;;;;;;13.80;87.80;;;;;;5092687;28;19924;-60
2024/04/04 11:06:06;;;;;;;;;;;13.90;87.50;;;;;;5089829;28;19925;-60
2024/04/04 11:08:41;;;;;;;;;;;14.00;87.20;;;;;;5090690;28;19924;-60
2024/04/04 11:11:15;;;;;;;;;;;14.10;87.10;;;;;;5087118;28;20424;-60
2024/04/04 11:13:48;;;;;;;;;;;14.10;87.00;;;;;;5090893;28;20398;-60
2024/04/04 11:16:22;;;;;;;;;;;14.20;86.60;;;;;;5090241;28;19924;-60
2024/04/04 11:18:54;;;;;;;;;;;14.30;86.50;;;;;;5096093;28;20371;-60
2024/04/04 11:21:27;;;;;;;;;;;14.40;86.20;;;;;;5093565;28;19932;-61
2024/04/04 11:24:00;;;;;;;;;;;14.30;85.90;;;;;;5088883;28;19953;-60
2024/04/04 11:26:34;;;;;;;;;;;14.30;85.70;;;;;;5091695;28;19958;-60
2024/04/04 11:29:06;;;;;;;;;;;14.30;85.70;;;;;;5092762;28;19924;-61
2024/04/04 11:35:11;;;;;;;;;;;14.30;85.40;;;;;;5076363;28;19994;-61
2024/04/04 11:37:44;;;;;;;;;;;14.30;85.20;;;;;;5092297;28;20325;-61
2024/04/04 11:40:18;;;;;;;;;;;14.30;85.10;;;;;;5093869;28;20325;-61
2024/04/04 11:42:51;;;;;;;;;;;14.30;85.20;;;;;;5093748;28;20282;-62
2024/04/04 11:45:31;;;;;;;;;;;14.30;85.00;;;;;;5095382;28;19925;-62
2024/04/04 11:48:09;;;;;;;;;;;14.30;84.80;;;;;;5096689;28;19947;-63
2024/04/04 11:50:50;;;;;;;;;;;14.40;84.30;;;;;;5096179;28;19931;-63
2024/04/04 11:53:22;;;;;;;;;;;14.40;84.20;;;;;;5095623;28;19934;-63
2024/04/04 11:55:57;;;;;;;;;;;14.40;84.20;;;;;;5092589;28;19930;-63
2024/04/04 11:58:31;;;;;;;;;;;14.40;84.30;;;;;;5096422;28;20398;-61
2024/04/04 12:01:16;;;;;;;;;;;14.30;84.50;;;;;;5085332;28;19928;-64
2024/04/04 12:03:48;;;;;;;;;;;14.30;84.80;;;;;;5097561;28;19924;-63
2024/04/04 12:06:21;;;;;;;;;;;14.20;84.80;;;;;;5098460;28;19934;-63
2024/04/04 12:08:53;;;;;;;;;;;14.20;85.10;;;;;;5094994;28;20022;-62
2024/04/04 12:11:27;;;;;;;;;;;14.20;85.30;;;;;;5092418;28;19951;-62
2024/04/04 12:14:00;;;;;;;;;;;14.10;85.50;;;;;;5085303;28;20378;-61
2024/04/04 12:16:33;;;;;;;;;;;14.00;85.80;;;;;;5086827;28;20000;-61
2024/04/04 12:22:02;;;;;;;;;;;14.00;86.00;;;;;;5072855;28;19928;-61
2024/04/04 12:24:35;;;;;;;;;;;13.90;86.10;;;;;;5110087;28;21378;-63
2024/04/04 12:27:09;;;;;;;;;;;13.90;86.10;;;;;;5089446;28;19932;-61
2024/04/04 12:29:43;;;;;;;;;;;13.90;85.90;;;;;;5093417;28;19977;-62
2024/04/04 12:32:15;;;;;;;;;;;13.80;85.90;;;;;;5088760;28;20032;-61
2024/04/04 12:34:48;;;;;;;;;;;13.70;85.80;;;;;;5085547;28;19935;-62
2024/04/04 12:37:20;;;;;;;;;;;13.60;85.90;;;;;;5094800;28;20429;-63
2024/04/04 12:40:00;;;;;;;;;;;13.60;86.20;;;;;;5093156;28;19947;-62
2024/04/04 12:42:33;;;;;;;;;;;13.50;86.20;;;;;;5089644;28;19935;-63
2024/04/04 12:45:07;;;;;;;;;;;13.50;86.20;;;;;;5088671;28;19924;-74
2024/04/04 12:47:39;;;;;;;;;;;13.40;86.30;;;;;;5083812;28;19939;-74
2024/04/04 12:50:12;;;;;;;;;;;13.40;86.20;;;;;;5095114;28;20763;-73
2024/04/04 12:52:58;;;;;;;;;;;13.30;86.40;;;;;;5089778;28;25894;-74
2024/04/04 12:55:38;;;;;;;;;;;13.20;86.60;;;;;;5084127;28;20295;-75
2024/04/04 12:58:12;;;;;;;;;;;13.20;86.60;;;;;;5093336;28;19934;-72
2024/04/04 13:00:46;;;;;;;;;;;13.20;86.70;;;;;;5090905;28;19973;-73
2024/04/04 13:03:18;;;;;;;;;;;13.10;86.90;;;;;;5098170;28;20001;-74
2024/04/04 13:05:51;;;;;;;;;;;13.10;87.10;;;;;;5080062;28;19935;-75
2024/04/04 13:08:24;;;;;;;;;;;13.10;87.20;;;;;;5090646;28;20456;-74
2024/04/04 13:10:57;;;;;;;;;;;13.10;87.20;;;;;;5085870;28;19935;-74
2024/04/04 13:13:30;;;;;;;;;;;13.20;87.10;;;;;;5090089;28;20181;-74
2024/04/04 13:16:04;;;;;;;;;;;13.40;86.80;;;;;;5098439;28;19946;-72
2024/04/04 13:18:31;;;;;;;;;;;13.60;86.60;;;;;;5094954;28;19928;-73
2024/04/04 13:21:04;;;;;;;;;;;13.70;86.20;;;;;;5089220;28;20383;-73
2024/04/04 13:23:37;;;;;;;;;;;13.90;85.90;;;;;;5093131;28;19924;-73
2024/04/04 13:26:10;;;;;;;;;;;13.90;85.90;;;;;;5096854;28;19947;-75
2024/04/04 13:28:44;;;;;;;;;;;13.90;85.70;;;;;;5096326;28;19939;-75
2024/04/04 13:31:17;;;;;;;;;;;13.90;85.60;;;;;;5092874;28;19925;-74
2024/04/04 13:33:49;;;;;;;;;;;13.90;85.60;;;;;;5090036;28;19960;-73
2024/04/04 13:36:22;;;;;;;;;;;13.90;85.30;;;;;;5093361;28;19924;-74
2024/04/04 13:38:54;;;;;;;;;;;14.00;85.30;;;;;;5091117;28;19924;-73
2024/04/04 13:41:33;;;;;;;;;;;14.10;85.40;;;;;;5090501;28;20019;-73
2024/04/04 13:44:07;;;;;;;;;;;14.10;85.10;;;;;;5088043;28;19931;-75
2024/04/04 13:46:34;;;;;;;;;;;14.00;85.00;;;;;;5095594;28;19924;-74
2024/04/04 13:49:06;;;;;;;;;;;13.90;84.90;;;;;;5089721;28;19969;-72
2024/04/04 13:51:39;;;;;;;;;;;13.80;85.00;;;;;;5075496;28;19932;-74
2024/04/04 13:54:12;;;;;;;;;;;13.70;85.20;;;;;;5095143;28;19939;-68
2024/04/04 13:56:46;;;;;;;;;;;13.70;85.30;;;;;;5095335;28;19928;-68
2024/04/04 13:59:20;;;;;;;;;;;13.60;85.30;;;;;;5094334;28;20379;-68
2024/04/04 14:01:47;;;;;;;;;;;13.60;85.20;;;;;;5091435;28;20008;-69
2024/04/04 14:04:19;;;;;;;;;;;13.60;85.00;;;;;;5096836;28;19924;-69
2024/04/04 14:06:53;;;;;;;;;;;13.50;85.00;;;;;;5096942;28;19924;-67
2024/04/04 14:09:25;;;;;;;;;;;13.50;85.20;;;;;;5090208;28;19924;-70
2024/04/04 14:12:05;;;;;;;;;;;13.50;85.30;;;;;;5091459;28;20389;-70
2024/04/04 14:14:38;;;;;;;;;;;13.50;85.30;;;;;;5094354;28;19936;-68
2024/04/04 14:17:13;;;;;;;;;;;13.50;85.10;;;;;;5093162;28;19951;-69
2024/04/04 14:19:46;;;;;;;;;;;13.40;84.90;;;;;;5088621;28;19924;-69
2024/04/04 14:22:19;;;;;;;;;;;13.40;84.90;;;;;;5092363;28;19939;-69
2024/04/04 14:24:51;;;;;;;;;;;13.40;84.40;;;;;;5094320;28;19985;-69
2024/04/04 14:27:25;;;;;;;;;;;13.40;84.10;;;;;;5092299;28;20408;-68
2024/04/04 14:30:00;;;;;;;;;;;13.40;83.80;;;;;;5092473;28;20353;-69
2024/04/04 14:32:35;;;;;;;;;;;13.40;83.90;;;;;;5095664;28;19931;-69
2024/04/04 14:35:07;;;;;;;;;;;13.40;83.80;;;;;;5089362;28;19931;-69
2024/04/04 14:37:41;;;;;;;;;;;13.40;83.70;;;;;;5094768;28;19933;-68
2024/04/04 14:40:13;;;;;;;;;;;13.40;83.70;;;;;;5093516;28;19928;-70
2024/04/04 14:42:47;;;;;;;;;;;13.40;83.70;;;;;;5089783;28;20290;-68
2024/04/04 14:45:21;;;;;;;;;;;13.40;83.80;;;;;;5090702;28;19960;-71
2024/04/04 14:47:54;;;;;;;;;;;13.30;83.80;;;;;;5094440;28;19934;-68
2024/04/04 14:50:29;;;;;;;;;;;13.30;83.90;;;;;;5094609;28;19930;-68
2024/04/04 14:53:02;;;;;;;;;;;13.40;83.80;;;;;;5088547;28;19943;-69
2024/04/04 14:55:34;;;;;;;;;;;13.50;83.70;;;;;;5093152;28;19974;-68
2024/04/04 14:58:08;;;;;;;;;;;13.50;83.60;;;;;;5093309;28;19978;-69
2024/04/04 15:00:48;;;;;;;;;;;13.60;83.70;;;;;;5092804;28;19935;-69